Other Surface Observations
Issued by NWS Great Falls, MT

Home | Current Version | Previous Version | Text Only | Print | Product List | Glossary On
Versions: 1 2 3 4 5 6 7 8 9 10 11 12 13 14 15 16 17 18 19 20 21 22 23 24 25 26 27 28 29 30 31 32 33 34 35 36 37 38 39 40 41 42 43 44 45 46 47 48 49 50
642
SXUS55 KTFX 261444
OSOTFX
AREA AWOS OBSERVATIONS
NATIONAL WEATHER SERVICE GREAT FALLS MT
0844 AM MDT THU MAY 26 2016

METAR K1S3 261445Z AUTO 26009KT 10SM 12/09 A2989 RMK FORSYTH
METAR KS71 261445Z AUTO 27006KT 10SM 11/09 A2992 RMK CHINOOK
METAR K38S 261445Z AUTO 00000KT 10SM 10/07 A3006 RMK DEER LODGE
METAR K3U3 261445Z AUTO 35004KT 10/05 A3004 RMK ANACONDA
METAR K6S5 261445Z AUTO 17007KT 10SM 11/05 A3004 RMK HAMILTON
METAR KS59 261445Z AUTO 00000KT 10SM 12/09 A3000 RMK LIBBY
METAR K88M 261445Z AUTO 00000KT 10SM 14/09 A2997 RMK EUREKA



USA.gov is the U.S. government's official web portal to all federal, state and local government web resources and services.